sensor_id;sensor_type;location;lat;lon;timestamp;pressure;altitude;pressure_sealevel;temperature;humidity
76730;BME280;65653;53.106;18.046;2023-05-07T00:01:31;101656.62;;;4.74;92.27
76730;BME280;65653;53.106;18.046;2023-05-07T00:03:58;101655.56;;;4.70;92.49
76730;BME280;65653;53.106;18.046;2023-05-07T00:06:24;101656.36;;;4.67;92.57
76730;BME280;65653;53.106;18.046;2023-05-07T00:08:52;101654.23;;;4.63;92.47
76730;BME280;65653;53.106;18.046;2023-05-07T00:11:19;101661.77;;;4.57;92.39
76730;BME280;65653;53.106;18.046;2023-05-07T00:13:47;101656.16;;;4.52;92.30
76730;BME280;65653;53.106;18.046;2023-05-07T00:16:17;101657.57;;;4.47;92.23
76730;BME280;65653;53.106;18.046;2023-05-07T00:18:43;101656.02;;;4.40;92.25
76730;BME280;65653;53.106;18.046;2023-05-07T00:21:10;101653.89;;;4.36;92.43
76730;BME280;65653;53.106;18.046;2023-05-07T00:23:37;101660.23;;;4.32;92.57
76730;BME280;65653;53.106;18.046;2023-05-07T00:26:04;101662.22;;;4.28;92.79
76730;BME280;65653;53.106;18.046;2023-05-07T00:28:30;101659.73;;;4.22;92.71
76730;BME280;65653;53.106;18.046;2023-05-07T00:30:57;101663.62;;;4.16;92.85
76730;BME280;65653;53.106;18.046;2023-05-07T00:33:23;101664.25;;;4.09;92.97
76730;BME280;65653;53.106;18.046;2023-05-07T00:35:52;101671.40;;;4.02;93.15
76730;BME280;65653;53.106;18.046;2023-05-07T00:38:21;101672.43;;;3.97;93.31
76730;BME280;65653;53.106;18.046;2023-05-07T00:40:47;101674.97;;;3.92;93.33
76730;BME280;65653;53.106;18.046;2023-05-07T00:43:14;101675.34;;;3.86;93.38
76730;BME280;65653;53.106;18.046;2023-05-07T00:45:41;101677.63;;;3.81;93.41
76730;BME280;65653;53.106;18.046;2023-05-07T00:48:07;101679.19;;;3.73;93.37
76730;BME280;65653;53.106;18.046;2023-05-07T00:50:34;101679.79;;;3.67;93.43
76730;BME280;65653;53.106;18.046;2023-05-07T00:53:00;101690.39;;;3.63;93.41
76730;BME280;65653;53.106;18.046;2023-05-07T00:55:27;101686.70;;;3.59;93.58
76730;BME280;65653;53.106;18.046;2023-05-07T00:57:55;101689.85;;;3.52;93.38
76730;BME280;65653;53.106;18.046;2023-05-07T01:00:22;101690.46;;;3.48;93.51
76730;BME280;65653;53.106;18.046;2023-05-07T01:02:48;101689.41;;;3.43;93.63
76730;BME280;65653;53.106;18.046;2023-05-07T01:05:17;101693.28;;;3.37;93.54
76730;BME280;65653;53.106;18.046;2023-05-07T01:07:45;101689.33;;;3.30;93.56
76730;BME280;65653;53.106;18.046;2023-05-07T01:10:13;101686.89;;;3.26;93.74
76730;BME280;65653;53.106;18.046;2023-05-07T01:12:41;101688.05;;;3.22;93.87
76730;BME280;65653;53.106;18.046;2023-05-07T01:15:09;101684.95;;;3.15;93.95
76730;BME280;65653;53.106;18.046;2023-05-07T01:17:37;101690.16;;;3.10;94.04
76730;BME280;65653;53.106;18.046;2023-05-07T01:20:05;101689.04;;;3.02;93.96
76730;BME280;65653;53.106;18.046;2023-05-07T01:22:34;101687.02;;;2.97;94.19
76730;BME280;65653;53.106;18.046;2023-05-07T01:25:03;101688.52;;;2.94;94.30
76730;BME280;65653;53.106;18.046;2023-05-07T01:27:30;101689.50;;;2.86;94.17
76730;BME280;65653;53.106;18.046;2023-05-07T01:29:57;101691.18;;;2.82;94.32
76730;BME280;65653;53.106;18.046;2023-05-07T01:32:32;101694.55;;;2.81;94.60
76730;BME280;65653;53.106;18.046;2023-05-07T01:35:01;101696.58;;;2.76;94.69
76730;BME280;65653;53.106;18.046;2023-05-07T01:37:30;101697.06;;;2.73;94.80
76730;BME280;65653;53.106;18.046;2023-05-07T01:39:57;101698.70;;;2.69;94.88
76730;BME280;65653;53.106;18.046;2023-05-07T01:42:24;101701.35;;;2.65;95.03
76730;BME280;65653;53.106;18.046;2023-05-07T01:44:50;101707.52;;;2.57;94.86
76730;BME280;65653;53.106;18.046;2023-05-07T01:47:17;101709.48;;;2.53;94.82
76730;BME280;65653;53.106;18.046;2023-05-07T01:49:44;101713.02;;;2.53;94.90
76730;BME280;65653;53.106;18.046;2023-05-07T01:52:10;101713.30;;;2.54;95.10
76730;BME280;65653;53.106;18.046;2023-05-07T01:54:37;101715.85;;;2.56;95.23
76730;BME280;65653;53.106;18.046;2023-05-07T01:57:04;101713.46;;;2.56;95.28
76730;BME280;65653;53.106;18.046;2023-05-07T01:59:30;101711.36;;;2.55;95.25
76730;BME280;65653;53.106;18.046;2023-05-07T02:01:57;101713.31;;;2.56;95.36
76730;BME280;65653;53.106;18.046;2023-05-07T02:04:23;101713.23;;;2.52;95.25
76730;BME280;65653;53.106;18.046;2023-05-07T02:06:50;101718.65;;;2.49;95.35
76730;BME280;65653;53.106;18.046;2023-05-07T02:09:17;101720.39;;;2.43;95.29
76730;BME280;65653;53.106;18.046;2023-05-07T02:11:44;101720.63;;;2.38;95.17
76730;BME280;65653;53.106;18.046;2023-05-07T02:14:11;101719.64;;;2.37;95.27
76730;BME280;65653;53.106;18.046;2023-05-07T02:16:38;101717.92;;;2.36;95.38
76730;BME280;65653;53.106;18.046;2023-05-07T02:19:04;101718.96;;;2.35;95.40
76730;BME280;65653;53.106;18.046;2023-05-07T02:21:31;101723.16;;;2.34;95.44
76730;BME280;65653;53.106;18.046;2023-05-07T02:23:58;101726.41;;;2.33;95.56
76730;BME280;65653;53.106;18.046;2023-05-07T02:26:24;101728.10;;;2.28;95.55
76730;BME280;65653;53.106;18.046;2023-05-07T02:28:52;101733.93;;;2.21;95.43
76730;BME280;65653;53.106;18.046;2023-05-07T02:31:19;101728.55;;;2.16;95.39
76730;BME280;65653;53.106;18.046;2023-05-07T02:33:45;101734.54;;;2.11;95.50
76730;BME280;65653;53.106;18.046;2023-05-07T02:36:12;101735.73;;;2.06;95.52
76730;BME280;65653;53.106;18.046;2023-05-07T02:38:40;101735.81;;;1.98;95.41
76730;BME280;65653;53.106;18.046;2023-05-07T02:41:06;101732.49;;;1.92;95.33
76730;BME280;65653;53.106;18.046;2023-05-07T02:43:32;101734.29;;;1.90;95.57
76730;BME280;65653;53.106;18.046;2023-05-07T02:46:06;101736.23;;;1.94;95.73
76730;BME280;65653;53.106;18.046;2023-05-07T02:48:34;101739.48;;;1.96;95.77
76730;BME280;65653;53.106;18.046;2023-05-07T02:51:02;101735.33;;;2.00;95.90
76730;BME280;65653;53.106;18.046;2023-05-07T02:53:29;101734.11;;;2.01;96.00
76730;BME280;65653;53.106;18.046;2023-05-07T02:55:57;101737.28;;;2.00;95.99
76730;BME280;65653;53.106;18.046;2023-05-07T02:58:24;101739.37;;;1.99;95.90
76730;BME280;65653;53.106;18.046;2023-05-07T03:00:51;101742.40;;;1.98;95.92
76730;BME280;65653;53.106;18.046;2023-05-07T03:03:18;101747.41;;;1.94;95.78
76730;BME280;65653;53.106;18.046;2023-05-07T03:05:44;101743.95;;;1.95;95.82
76730;BME280;65653;53.106;18.046;2023-05-07T03:08:11;101744.96;;;1.91;95.79
76730;BME280;65653;53.106;18.046;2023-05-07T03:10:37;101749.14;;;1.89;95.80
76730;BME280;65653;53.106;18.046;2023-05-07T03:13:04;101751.83;;;1.90;95.88
76730;BME280;65653;53.106;18.046;2023-05-07T03:15:31;101755.23;;;1.88;95.81
76730;BME280;65653;53.106;18.046;2023-05-07T03:17:57;101759.56;;;1.87;95.85
76730;BME280;65653;53.106;18.046;2023-05-07T03:20:24;101760.14;;;1.84;95.67
76730;BME280;65653;53.106;18.046;2023-05-07T03:22:51;101764.83;;;1.84;95.74
76730;BME280;65653;53.106;18.046;2023-05-07T03:25:17;101761.77;;;1.88;95.78
76730;BME280;65653;53.106;18.046;2023-05-07T03:27:44;101766.72;;;1.90;95.95
76730;BME280;65653;53.106;18.046;2023-05-07T03:30:12;101767.84;;;1.92;95.78
76730;BME280;65653;53.106;18.046;2023-05-07T03:32:39;101771.89;;;1.94;95.86
76730;BME280;65653;53.106;18.046;2023-05-07T03:35:06;101774.20;;;1.97;95.78
76730;BME280;65653;53.106;18.046;2023-05-07T03:37:34;101776.08;;;2.00;95.79
76730;BME280;65653;53.106;18.046;2023-05-07T03:40:01;101777.20;;;2.04;95.68
76730;BME280;65653;53.106;18.046;2023-05-07T03:42:28;101782.11;;;2.09;95.68
76730;BME280;65653;53.106;18.046;2023-05-07T03:44:55;101783.30;;;2.14;95.80
76730;BME280;65653;53.106;18.046;2023-05-07T03:47:22;101780.55;;;2.24;95.65
76730;BME280;65653;53.106;18.046;2023-05-07T03:49:48;101780.85;;;2.35;95.87
76730;BME280;65653;53.106;18.046;2023-05-07T03:52:16;101782.74;;;2.43;95.78
76730;BME280;65653;53.106;18.046;2023-05-07T03:54:42;101782.81;;;2.60;95.72
76730;BME280;65653;53.106;18.046;2023-05-07T03:57:09;101786.04;;;2.97;95.71
76730;BME280;65653;53.106;18.046;2023-05-07T03:59:35;101791.30;;;3.16;95.26
76730;BME280;65653;53.106;18.046;2023-05-07T04:02:02;101788.27;;;3.11;94.78
76730;BME280;65653;53.106;18.046;2023-05-07T04:04:28;101791.77;;;3.11;94.46
76730;BME280;65653;53.106;18.046;2023-05-07T04:06:59;101796.02;;;3.16;94.56
76730;BME280;65653;53.106;18.046;2023-05-07T04:09:29;101796.80;;;3.20;94.57
76730;BME280;65653;53.106;18.046;2023-05-07T04:11:55;101801.65;;;3.27;94.53
76730;BME280;65653;53.106;18.046;2023-05-07T04:14:22;101805.02;;;3.32;94.34
76730;BME280;65653;53.106;18.046;2023-05-07T04:16:49;101807.16;;;3.39;94.30
76730;BME280;65653;53.106;18.046;2023-05-07T04:19:15;101806.64;;;3.45;94.08
76730;BME280;65653;53.106;18.046;2023-05-07T04:21:41;101811.70;;;3.52;93.91
76730;BME280;65653;53.106;18.046;2023-05-07T04:24:08;101812.66;;;3.57;93.75
76730;BME280;65653;53.106;18.046;2023-05-07T04:26:34;101816.08;;;3.64;93.63
76730;BME280;65653;53.106;18.046;2023-05-07T04:29:01;101818.33;;;3.72;93.56
76730;BME280;65653;53.106;18.046;2023-05-07T04:31:28;101819.02;;;3.80;93.49
76730;BME280;65653;53.106;18.046;2023-05-07T04:33:55;101823.01;;;3.87;93.22
76730;BME280;65653;53.106;18.046;2023-05-07T04:36:21;101821.80;;;3.96;93.23
76730;BME280;65653;53.106;18.046;2023-05-07T04:38:48;101820.61;;;4.07;93.12
76730;BME280;65653;53.106;18.046;2023-05-07T04:41:14;101821.83;;;4.12;92.68
76730;BME280;65653;53.106;18.046;2023-05-07T04:43:41;101824.70;;;4.17;92.50
76730;BME280;65653;53.106;18.046;2023-05-07T04:46:08;101826.05;;;4.20;92.28
76730;BME280;65653;53.106;18.046;2023-05-07T04:48:35;101828.12;;;4.31;92.35
76730;BME280;65653;53.106;18.046;2023-05-07T04:51:02;101835.36;;;4.45;92.37
76730;BME280;65653;53.106;18.046;2023-05-07T04:53:30;101835.66;;;4.55;92.00
76730;BME280;65653;53.106;18.046;2023-05-07T04:55:57;101839.56;;;4.64;91.52
76730;BME280;65653;53.106;18.046;2023-05-07T04:58:24;101842.17;;;4.66;90.57
76730;BME280;65653;53.106;18.046;2023-05-07T05:00:51;101841.80;;;4.66;90.47
76730;BME280;65653;53.106;18.046;2023-05-07T05:03:18;101844.12;;;4.72;90.39
76730;BME280;65653;53.106;18.046;2023-05-07T05:05:44;101846.63;;;4.81;90.45
76730;BME280;65653;53.106;18.046;2023-05-07T05:08:11;101847.36;;;4.88;90.24
76730;BME280;65653;53.106;18.046;2023-05-07T05:10:37;101848.02;;;4.97;90.44
76730;BME280;65653;53.106;18.046;2023-05-07T05:13:04;101845.36;;;5.10;90.25
76730;BME280;65653;53.106;18.046;2023-05-07T05:15:31;101845.95;;;5.27;90.03
76730;BME280;65653;53.106;18.046;2023-05-07T05:17:57;101854.80;;;5.36;89.71
76730;BME280;65653;53.106;18.046;2023-05-07T05:20:24;101855.80;;;5.43;89.67
76730;BME280;65653;53.106;18.046;2023-05-07T05:22:51;101852.23;;;5.55;89.78
76730;BME280;65653;53.106;18.046;2023-05-07T05:25:17;101855.48;;;5.67;89.34
76730;BME280;65653;53.106;18.046;2023-05-07T05:27:44;101858.21;;;5.79;89.30
76730;BME280;65653;53.106;18.046;2023-05-07T05:30:11;101857.95;;;5.86;88.59
76730;BME280;65653;53.106;18.046;2023-05-07T05:32:38;101859.64;;;5.91;88.66
76730;BME280;65653;53.106;18.046;2023-05-07T05:35:05;101858.02;;;5.96;88.17
76730;BME280;65653;53.106;18.046;2023-05-07T05:37:32;101861.16;;;6.07;88.51
76730;BME280;65653;53.106;18.046;2023-05-07T05:39:58;101869.02;;;6.24;88.71
76730;BME280;65653;53.106;18.046;2023-05-07T05:42:25;101867.61;;;6.38;88.47
76730;BME280;65653;53.106;18.046;2023-05-07T05:44:52;101863.59;;;6.51;88.13
76730;BME280;65653;53.106;18.046;2023-05-07T05:47:18;101864.25;;;6.59;87.12
76730;BME280;65653;53.106;18.046;2023-05-07T05:49:45;101863.63;;;6.69;87.37
76730;BME280;65653;53.106;18.046;2023-05-07T05:52:12;101863.63;;;6.80;87.23
76730;BME280;65653;53.106;18.046;2023-05-07T05:54:40;101866.80;;;6.87;86.88
76730;BME280;65653;53.106;18.046;2023-05-07T05:57:06;101866.86;;;6.95;87.10
76730;BME280;65653;53.106;18.046;2023-05-07T05:59:33;101867.70;;;6.99;86.13
76730;BME280;65653;53.106;18.046;2023-05-07T06:02:00;101871.69;;;7.11;86.37
76730;BME280;65653;53.106;18.046;2023-05-07T06:04:26;101870.16;;;7.28;86.10
76730;BME280;65653;53.106;18.046;2023-05-07T06:06:52;101871.00;;;7.35;85.60
76730;BME280;65653;53.106;18.046;2023-05-07T06:09:19;101869.36;;;7.41;85.20
76730;BME280;65653;53.106;18.046;2023-05-07T06:11:46;101869.07;;;7.36;84.16
76730;BME280;65653;53.106;18.046;2023-05-07T06:14:13;101866.55;;;7.41;84.82
76730;BME280;65653;53.106;18.046;2023-05-07T06:16:39;101866.01;;;7.52;84.70
76730;BME280;65653;53.106;18.046;2023-05-07T06:19:06;101869.61;;;7.61;84.60
76730;BME280;65653;53.106;18.046;2023-05-07T06:21:32;101871.76;;;7.67;82.35
76730;BME280;65653;53.106;18.046;2023-05-07T06:23:58;101874.09;;;7.72;83.57
76730;BME280;65653;53.106;18.046;2023-05-07T06:26:25;101877.90;;;7.87;83.11
76730;BME280;65653;53.106;18.046;2023-05-07T06:28:53;101876.91;;;7.96;83.33
76730;BME280;65653;53.106;18.046;2023-05-07T06:31:20;101877.11;;;8.09;83.73
76730;BME280;65653;53.106;18.046;2023-05-07T06:33:46;101875.67;;;8.13;81.10
76730;BME280;65653;53.106;18.046;2023-05-07T06:36:13;101872.40;;;8.15;79.74
76730;BME280;65653;53.106;18.046;2023-05-07T06:38:39;101875.97;;;8.19;80.52
76730;BME280;65653;53.106;18.046;2023-05-07T06:41:07;101876.69;;;8.26;81.04
76730;BME280;65653;53.106;18.046;2023-05-07T06:43:33;101879.83;;;8.40;81.26
76730;BME280;65653;53.106;18.046;2023-05-07T06:46:00;101880.23;;;8.48;80.66
76730;BME280;65653;53.106;18.046;2023-05-07T06:48:27;101884.95;;;8.61;80.35
76730;BME280;65653;53.106;18.046;2023-05-07T06:50:53;101884.91;;;8.70;77.87
76730;BME280;65653;53.106;18.046;2023-05-07T06:53:22;101883.09;;;8.80;78.34
76730;BME280;65653;53.106;18.046;2023-05-07T06:55:48;101881.90;;;8.91;77.40
76730;BME280;65653;53.106;18.046;2023-05-07T06:58:14;101884.94;;;8.98;77.00
76730;BME280;65653;53.106;18.046;2023-05-07T07:00:41;101883.61;;;9.03;76.45
76730;BME280;65653;53.106;18.046;2023-05-07T07:03:07;101891.50;;;9.05;75.58
76730;BME280;65653;53.106;18.046;2023-05-07T07:05:34;101891.77;;;9.15;77.83
76730;BME280;65653;53.106;18.046;2023-05-07T07:08:00;101896.88;;;9.30;76.28
76730;BME280;65653;53.106;18.046;2023-05-07T07:10:27;101900.80;;;9.28;72.92
76730;BME280;65653;53.106;18.046;2023-05-07T07:12:55;101901.88;;;9.28;75.34
76730;BME280;65653;53.106;18.046;2023-05-07T07:15:22;101901.72;;;9.49;77.10
76730;BME280;65653;53.106;18.046;2023-05-07T07:17:51;101906.23;;;9.68;76.54
76730;BME280;65653;53.106;18.046;2023-05-07T07:20:18;101906.27;;;9.81;76.26
76730;BME280;65653;53.106;18.046;2023-05-07T07:22:44;101906.12;;;9.85;72.94
76730;BME280;65653;53.106;18.046;2023-05-07T07:25:11;101905.91;;;9.86;74.41
76730;BME280;65653;53.106;18.046;2023-05-07T07:27:38;101903.77;;;9.93;73.80
76730;BME280;65653;53.106;18.046;2023-05-07T07:30:06;101901.72;;;9.87;73.10
76730;BME280;65653;53.106;18.046;2023-05-07T07:32:34;101902.69;;;9.98;75.22
76730;BME280;65653;53.106;18.046;2023-05-07T07:35:01;101901.32;;;10.04;71.41
76730;BME280;65653;53.106;18.046;2023-05-07T07:37:27;101900.99;;;10.13;70.93
76730;BME280;65653;53.106;18.046;2023-05-07T07:39:55;101898.36;;;10.22;70.02
76730;BME280;65653;53.106;18.046;2023-05-07T07:42:21;101902.55;;;10.36;73.12
76730;BME280;65653;53.106;18.046;2023-05-07T07:44:48;101906.41;;;10.47;70.13
76730;BME280;65653;53.106;18.046;2023-05-07T07:47:15;101904.78;;;10.47;67.53
76730;BME280;65653;53.106;18.046;2023-05-07T07:49:42;101909.59;;;10.47;66.69
76730;BME280;65653;53.106;18.046;2023-05-07T07:52:08;101914.89;;;10.51;65.82
76730;BME280;65653;53.106;18.046;2023-05-07T07:54:35;101910.29;;;10.59;66.29
76730;BME280;65653;53.106;18.046;2023-05-07T07:57:01;101908.89;;;10.68;63.91
76730;BME280;65653;53.106;18.046;2023-05-07T07:59:27;101911.77;;;10.81;59.50
76730;BME280;65653;53.106;18.046;2023-05-07T08:01:54;101911.02;;;10.80;58.47
76730;BME280;65653;53.106;18.046;2023-05-07T08:04:23;101911.48;;;10.83;57.79
76730;BME280;65653;53.106;18.046;2023-05-07T08:06:49;101913.31;;;10.98;59.18
76730;BME280;65653;53.106;18.046;2023-05-07T08:09:15;101914.19;;;11.14;58.88
76730;BME280;65653;53.106;18.046;2023-05-07T08:11:42;101910.73;;;11.19;54.31
76730;BME280;65653;53.106;18.046;2023-05-07T08:14:09;101908.39;;;11.67;53.78
76730;BME280;65653;53.106;18.046;2023-05-07T08:16:36;101907.64;;;12.55;52.01
76730;BME280;65653;53.106;18.046;2023-05-07T08:19:02;101905.76;;;13.41;54.93
76730;BME280;65653;53.106;18.046;2023-05-07T08:21:29;101902.35;;;14.08;53.93
76730;BME280;65653;53.106;18.046;2023-05-07T08:23:57;101900.90;;;14.42;47.31
76730;BME280;65653;53.106;18.046;2023-05-07T08:26:24;101906.14;;;14.71;51.75
76730;BME280;65653;53.106;18.046;2023-05-07T08:28:50;101903.69;;;14.69;50.73
76730;BME280;65653;53.106;18.046;2023-05-07T08:31:17;101908.53;;;14.87;53.07
76730;BME280;65653;53.106;18.046;2023-05-07T08:33:43;101909.61;;;15.45;50.61
76730;BME280;65653;53.106;18.046;2023-05-07T08:36:10;101903.88;;;16.28;51.56
76730;BME280;65653;53.106;18.046;2023-05-07T08:38:36;101894.23;;;16.99;45.18
76730;BME280;65653;53.106;18.046;2023-05-07T08:41:03;101900.28;;;17.27;42.32
76730;BME280;65653;53.106;18.046;2023-05-07T08:43:30;101901.65;;;17.60;41.07
76730;BME280;65653;53.106;18.046;2023-05-07T08:46:00;101906.69;;;18.07;41.80
76730;BME280;65653;53.106;18.046;2023-05-07T08:48:29;101908.41;;;18.58;40.52
76730;BME280;65653;53.106;18.046;2023-05-07T08:50:58;101909.10;;;18.64;37.12
76730;BME280;65653;53.106;18.046;2023-05-07T08:53:25;101906.77;;;18.64;36.67
76730;BME280;65653;53.106;18.046;2023-05-07T08:55:52;101905.25;;;19.08;37.87
76730;BME280;65653;53.106;18.046;2023-05-07T08:58:19;101909.26;;;19.45;36.10
76730;BME280;65653;53.106;18.046;2023-05-07T09:00:47;101908.57;;;20.01;37.98
76730;BME280;65653;53.106;18.046;2023-05-07T09:03:13;101909.88;;;20.31;34.75
76730;BME280;65653;53.106;18.046;2023-05-07T09:05:40;101912.76;;;20.27;35.50
76730;BME280;65653;53.106;18.046;2023-05-07T09:08:07;101908.73;;;20.84;37.60
76730;BME280;65653;53.106;18.046;2023-05-07T09:10:34;101901.52;;;21.27;34.19
76730;BME280;65653;53.106;18.046;2023-05-07T09:13:02;101902.53;;;21.54;33.81
76730;BME280;65653;53.106;18.046;2023-05-07T09:15:29;101904.34;;;21.75;31.68
76730;BME280;65653;53.106;18.046;2023-05-07T09:17:59;101902.90;;;21.71;29.85
76730;BME280;65653;53.106;18.046;2023-05-07T09:20:30;101905.96;;;22.23;32.86
76730;BME280;65653;53.106;18.046;2023-05-07T09:22:56;101899.77;;;22.83;32.03
76730;BME280;65653;53.106;18.046;2023-05-07T09:25:31;101900.70;;;23.10;31.18
76730;BME280;65653;53.106;18.046;2023-05-07T09:28:02;101898.94;;;23.22;28.99
76730;BME280;65653;53.106;18.046;2023-05-07T09:30:30;101904.13;;;23.68;29.48
76730;BME280;65653;53.106;18.046;2023-05-07T09:32:59;101898.25;;;23.82;27.52
76730;BME280;65653;53.106;18.046;2023-05-07T09:35:26;101893.75;;;23.89;26.91
76730;BME280;65653;53.106;18.046;2023-05-07T09:37:57;101898.58;;;23.89;27.41
76730;BME280;65653;53.106;18.046;2023-05-07T09:40:28;101894.52;;;24.35;27.42
76730;BME280;65653;53.106;18.046;2023-05-07T09:42:56;101895.67;;;24.47;26.80
76730;BME280;65653;53.106;18.046;2023-05-07T09:45:26;101901.36;;;24.69;26.70
76730;BME280;65653;53.106;18.046;2023-05-07T09:47:57;101901.19;;;24.38;25.94
76730;BME280;65653;53.106;18.046;2023-05-07T09:50:30;101895.63;;;24.31;26.11
76730;BME280;65653;53.106;18.046;2023-05-07T09:52:58;101889.76;;;25.17;26.17
76730;BME280;65653;53.106;18.046;2023-05-07T09:55:25;101901.34;;;25.29;25.08
76730;BME280;65653;53.106;18.046;2023-05-07T09:57:53;101907.17;;;25.52;25.48
76730;BME280;65653;53.106;18.046;2023-05-07T10:00:20;101910.17;;;25.85;24.83
76730;BME280;65653;53.106;18.046;2023-05-07T10:02:52;101911.13;;;25.66;26.08
76730;BME280;65653;53.106;18.046;2023-05-07T10:05:19;101911.42;;;25.25;25.81
76730;BME280;65653;53.106;18.046;2023-05-07T10:07:49;101908.60;;;26.48;25.40
76730;BME280;65653;53.106;18.046;2023-05-07T10:10:17;101908.29;;;27.72;25.11
76730;BME280;65653;53.106;18.046;2023-05-07T10:12:44;101904.89;;;28.98;22.63
76730;BME280;65653;53.106;18.046;2023-05-07T10:15:12;101905.88;;;28.67;21.57
76730;BME280;65653;53.106;18.046;2023-05-07T10:17:40;101909.17;;;28.34;22.14
76730;BME280;65653;53.106;18.046;2023-05-07T10:20:08;101911.64;;;28.30;21.97
76730;BME280;65653;53.106;18.046;2023-05-07T10:22:43;101913.63;;;27.94;21.81
76730;BME280;65653;53.106;18.046;2023-05-07T10:25:33;101905.50;;;28.20;22.07
76730;BME280;65653;53.106;18.046;2023-05-07T10:28:06;101911.85;;;27.86;21.93
76730;BME280;65653;53.106;18.046;2023-05-07T10:33:29;101904.38;;;28.35;21.15
76730;BME280;65653;53.106;18.046;2023-05-07T10:35:59;101908.77;;;28.22;21.54
76730;BME280;65653;53.106;18.046;2023-05-07T10:38:27;101901.90;;;28.94;21.45
76730;BME280;65653;53.106;18.046;2023-05-07T10:40:54;101900.48;;;29.66;21.42
76730;BME280;65653;53.106;18.046;2023-05-07T10:43:20;101901.77;;;30.01;20.32
76730;BME280;65653;53.106;18.046;2023-05-07T10:46:19;101897.27;;;29.99;20.00
76730;BME280;65653;53.106;18.046;2023-05-07T10:51:33;101895.89;;;29.77;19.79
76730;BME280;65653;53.106;18.046;2023-05-07T10:56:38;101896.20;;;30.55;19.31
76730;BME280;65653;53.106;18.046;2023-05-07T11:04:25;101896.94;;;28.79;19.27
76730;BME280;65653;53.106;18.046;2023-05-07T11:15:08;101901.54;;;30.91;18.32
76730;BME280;65653;53.106;18.046;2023-05-07T11:17:57;101908.34;;;31.20;17.69
76730;BME280;65653;53.106;18.046;2023-05-07T11:20:46;101904.62;;;31.09;18.13
76730;BME280;65653;53.106;18.046;2023-05-07T11:26:00;101909.97;;;28.63;19.77
76730;BME280;65653;53.106;18.046;2023-05-07T11:28:30;101911.39;;;26.90;21.60
76730;BME280;65653;53.106;18.046;2023-05-07T11:30:57;101906.70;;;28.61;20.02
76730;BME280;65653;53.106;18.046;2023-05-07T11:33:24;101901.83;;;29.57;19.19
76730;BME280;65653;53.106;18.046;2023-05-07T11:35:54;101898.38;;;30.58;18.71
76730;BME280;65653;53.106;18.046;2023-05-07T11:38:20;101899.33;;;31.27;19.02
76730;BME280;65653;53.106;18.046;2023-05-07T11:40:58;101899.42;;;31.43;17.82
76730;BME280;65653;53.106;18.046;2023-05-07T11:43:27;101899.42;;;31.52;17.82
76730;BME280;65653;53.106;18.046;2023-05-07T11:45:53;101892.29;;;31.23;18.05
76730;BME280;65653;53.106;18.046;2023-05-07T11:48:21;101893.54;;;30.67;18.53
76730;BME280;65653;53.106;18.046;2023-05-07T11:51:01;101894.23;;;29.42;19.13
76730;BME280;65653;53.106;18.046;2023-05-07T11:53:36;101903.48;;;27.71;20.25
76730;BME280;65653;53.106;18.046;2023-05-07T11:56:07;101900.81;;;28.99;19.05
76730;BME280;65653;53.106;18.046;2023-05-07T11:58:34;101899.27;;;29.77;18.96
76730;BME280;65653;53.106;18.046;2023-05-07T12:01:01;101904.22;;;30.14;18.13
76730;BME280;65653;53.106;18.046;2023-05-07T12:03:28;101903.23;;;30.28;18.34
76730;BME280;65653;53.106;18.046;2023-05-07T12:05:54;101906.59;;;30.20;17.53
76730;BME280;65653;53.106;18.046;2023-05-07T12:08:21;101903.71;;;30.61;17.57
76730;BME280;65653;53.106;18.046;2023-05-07T12:10:50;101906.71;;;30.63;17.60
76730;BME280;65653;53.106;18.046;2023-05-07T12:13:19;101908.70;;;30.31;17.63
76730;BME280;65653;53.106;18.046;2023-05-07T12:15:46;101909.99;;;29.68;18.07
76730;BME280;65653;53.106;18.046;2023-05-07T12:18:13;101907.88;;;30.41;17.08
76730;BME280;65653;53.106;18.046;2023-05-07T12:20:39;101903.85;;;31.02;16.75
76730;BME280;65653;53.106;18.046;2023-05-07T12:23:06;101901.27;;;31.02;16.84
76730;BME280;65653;53.106;18.046;2023-05-07T12:25:40;101899.39;;;30.87;17.06
76730;BME280;65653;53.106;18.046;2023-05-07T12:28:17;101900.91;;;30.95;17.13
76730;BME280;65653;53.106;18.046;2023-05-07T12:30:47;101904.23;;;28.52;18.73
76730;BME280;65653;53.106;18.046;2023-05-07T12:33:24;101901.71;;;29.51;17.72
76730;BME280;65653;53.106;18.046;2023-05-07T12:35:53;101904.11;;;31.18;17.21
76730;BME280;65653;53.106;18.046;2023-05-07T12:38:20;101903.02;;;30.38;16.63
76730;BME280;65653;53.106;18.046;2023-05-07T12:40:49;101901.90;;;30.87;17.35
76730;BME280;65653;53.106;18.046;2023-05-07T12:43:20;101902.99;;;31.57;15.96
76730;BME280;65653;53.106;18.046;2023-05-07T12:45:49;101899.73;;;31.62;15.82
76730;BME280;65653;53.106;18.046;2023-05-07T12:48:16;101899.52;;;30.94;16.31
76730;BME280;65653;53.106;18.046;2023-05-07T12:50:43;101900.39;;;31.31;16.23
76730;BME280;65653;53.106;18.046;2023-05-07T12:53:11;101902.30;;;31.77;16.16
76730;BME280;65653;53.106;18.046;2023-05-07T12:55:43;101901.10;;;32.20;15.82
76730;BME280;65653;53.106;18.046;2023-05-07T12:58:24;101908.11;;;32.39;15.27
76730;BME280;65653;53.106;18.046;2023-05-07T13:00:52;101905.89;;;32.16;15.07
76730;BME280;65653;53.106;18.046;2023-05-07T13:03:29;101901.48;;;31.28;14.76
76730;BME280;65653;53.106;18.046;2023-05-07T13:05:58;101897.27;;;30.21;15.97
76730;BME280;65653;53.106;18.046;2023-05-07T13:08:35;101894.73;;;28.38;17.77
76730;BME280;65653;53.106;18.046;2023-05-07T13:11:04;101895.33;;;29.58;17.36
76730;BME280;65653;53.106;18.046;2023-05-07T13:13:32;101892.20;;;30.92;16.75